Time;durP1;ratioP1;P1;durP2;ratioP2;P2;SDS_P1;SDS_P2;PMS_P1;PMS_P2;Temp;Humidity;BMP_temperature;BMP_pressure;BME280_temperature;BME280_humidity;BME280_pressure;Samples;Min_cycle;Max_cycle;Signal;HPM_P1;HPM_P2
2023/04/03 00:02:00;;;;;;;6.60;5.03;;;0.30;1.00;;;;;;5093864;28;20667;-68
2023/04/03 00:04:29;;;;;;;9.17;4.60;;;0.30;1.00;;;;;;5093572;28;20435;-69
2023/04/03 00:06:55;;;;;;;11.32;3.72;;;0.20;1.00;;;;;;5094551;28;20416;-68
2023/04/03 00:09:37;;;;;;;3.40;3.20;;;0.20;1.00;;;;;;5073614;28;20224;-69
2023/04/03 00:12:03;;;;;;;3.20;2.95;;;0.20;1.00;;;;;;5055431;28;20190;-69
2023/04/03 00:14:29;;;;;;;3.28;3.03;;;0.20;1.00;;;;;;5056270;28;20177;-68
2023/04/03 00:17:16;;;;;;;3.72;2.50;;;0.20;1.00;;;;;;5073492;28;20178;-70
2023/04/03 00:19:45;;;;;;;4.47;2.88;;;0.20;1.00;;;;;;5074092;28;20659;-68
2023/04/03 00:22:14;;;;;;;3.10;2.80;;;0.20;1.00;;;;;;5080262;28;20203;-70
2023/04/03 00:24:40;;;;;;;3.38;3.08;;;0.20;1.00;;;;;;5076208;28;20181;-69
2023/04/03 00:27:06;;;;;;;3.10;2.37;;;0.20;1.00;;;;;;5094024;28;20187;-70
2023/04/03 00:29:32;;;;;;;3.73;3.53;;;0.20;1.00;;;;;;5093685;28;20407;-70
2023/04/03 00:31:58;;;;;;;3.93;2.57;;;0.30;1.00;;;;;;5093187;28;20480;-68
2023/04/03 00:34:26;;;;;;;5.35;4.25;;;0.30;1.00;;;;;;5094076;28;20415;-70
2023/04/03 00:36:52;;;;;;;5.43;2.70;;;0.20;1.00;;;;;;5092787;28;20174;-68
2023/04/03 00:39:18;;;;;;;3.77;3.27;;;0.20;1.00;;;;;;5094066;28;20177;-68
2023/04/03 00:41:44;;;;;;;3.40;3.10;;;0.20;1.00;;;;;;5092968;28;20526;-70
2023/04/03 00:44:26;;;;;;;2.80;2.60;;;0.20;1.00;;;;;;5093930;28;20208;-68
2023/04/03 00:46:58;;;;;;;3.13;2.50;;;0.20;1.00;;;;;;5093067;28;20455;-69
2023/04/03 00:49:24;;;;;;;3.08;2.88;;;0.20;1.00;;;;;;5092564;28;20196;-69
2023/04/03 00:51:50;;;;;;;3.28;2.90;;;0.10;1.00;;;;;;5092714;28;20201;-68
2023/04/03 00:54:16;;;;;;;4.38;2.95;;;0.10;1.00;;;;;;5093713;28;20169;-68
2023/04/03 00:57:22;;;;;;;3.63;2.97;;;0.10;1.00;;;;;;5093767;28;20173;-69
2023/04/03 01:03:37;;;;;;;3.00;2.80;;;0.10;1.00;;;;;;5092627;28;20196;-68
2023/04/03 01:06:06;;;;;;;3.40;3.05;;;0.00;1.00;;;;;;5073024;28;20234;-69
2023/04/03 01:08:39;;;;;;;3.53;3.25;;;0.00;1.00;;;;;;5073355;28;20228;-68
2023/04/03 01:11:05;;;;;;;3.67;3.25;;;0.00;1.00;;;;;;5072235;28;20170;-68
2023/04/03 01:13:32;;;;;;;6.20;3.28;;;0.00;1.00;;;;;;5079239;28;20234;-70
2023/04/03 01:16:03;;;;;;;2.75;2.60;;;-0.10;1.00;;;;;;5093449;28;20177;-68
2023/04/03 01:18:36;;;;;;;3.70;2.55;;;-0.10;1.00;;;;;;5093455;28;20197;-69
2023/04/03 01:21:23;;;;;;;4.95;3.15;;;-0.10;1.00;;;;;;5092340;28;20173;-69
2023/04/03 01:24:06;;;;;;;4.25;3.00;;;-0.10;1.00;;;;;;5074699;28;20546;-70
2023/04/03 01:26:33;;;;;;;3.08;2.42;;;-0.10;1.00;;;;;;5072053;28;20198;-70
2023/04/03 01:29:00;;;;;;;8.02;2.72;;;-0.20;1.00;;;;;;5083890;28;20217;-68
2023/04/03 01:31:27;;;;;;;8.60;2.70;;;-0.20;1.00;;;;;;5071878;28;20162;-69
2023/04/03 01:33:54;;;;;;;3.33;3.00;;;-0.20;1.00;;;;;;5073085;28;20164;-68
2023/04/03 01:36:26;;;;;;;4.30;3.70;;;-0.20;1.00;;;;;;5072947;28;20174;-68
2023/04/03 01:38:55;;;;;;;2.67;2.30;;;-0.20;1.00;;;;;;5072154;28;20190;-69
2023/04/03 01:41:21;;;;;;;3.50;2.67;;;-0.30;1.00;;;;;;5071511;28;20185;-69
2023/04/03 01:43:48;;;;;;;2.50;2.40;;;-0.30;1.00;;;;;;5072801;28;20170;-70
2023/04/03 01:46:18;;;;;;;3.50;3.20;;;-0.30;1.00;;;;;;5072805;28;20224;-68
2023/04/03 01:48:44;;;;;;;3.30;2.80;;;-0.30;1.00;;;;;;5072873;28;20181;-69
2023/04/03 01:51:11;;;;;;;4.47;3.40;;;-0.30;1.00;;;;;;5053999;28;20584;-70
2023/04/03 01:54:07;;;;;;;4.15;3.70;;;-0.30;1.00;;;;;;5081686;28;20206;-69
2023/04/03 01:56:33;;;;;;;3.40;3.20;;;-0.30;1.00;;;;;;5092760;28;20178;-69
2023/04/03 01:59:39;;;;;;;3.70;3.40;;;-0.30;1.00;;;;;;5074234;28;20177;-70
2023/04/03 02:02:27;;;;;;;3.50;3.15;;;-0.40;1.00;;;;;;5091953;28;20189;-69
2023/04/03 02:04:56;;;;;;;6.30;3.45;;;-0.30;1.00;;;;;;5092807;28;20208;-70
2023/04/03 02:07:22;;;;;;;7.28;3.60;;;-0.30;1.00;;;;;;5091867;28;20248;-69
2023/04/03 02:09:48;;;;;;;4.53;3.70;;;-0.40;1.00;;;;;;5092644;28;20249;-68
2023/04/03 02:12:17;;;;;;;5.07;3.83;;;-0.40;1.00;;;;;;5091869;28;20181;-69
2023/04/03 02:14:43;;;;;;;3.63;3.33;;;-0.40;1.00;;;;;;5074506;28;20482;-69
2023/04/03 02:17:19;;;;;;;3.30;3.00;;;-0.50;1.00;;;;;;5072231;28;20178;-68
2023/04/03 02:19:45;;;;;;;3.08;2.88;;;-0.50;1.00;;;;;;5072428;28;20388;-68
2023/04/03 02:22:13;;;;;;;3.77;3.07;;;-0.50;1.00;;;;;;5078398;28;20251;-68
2023/04/03 02:24:40;;;;;;;3.88;3.60;;;-0.50;1.00;;;;;;5092687;28;20455;-69
2023/04/03 02:27:06;;;;;;;4.18;3.05;;;-0.50;1.00;;;;;;5092699;28;20176;-70
2023/04/03 02:29:32;;;;;;;2.90;2.70;;;-0.50;1.00;;;;;;5092743;28;20688;-70
2023/04/03 02:31:58;;;;;;;5.05;3.35;;;-0.50;1.00;;;;;;5091567;28;20599;-70
2023/04/03 02:34:24;;;;;;;4.22;3.70;;;-0.50;1.00;;;;;;5092208;28;20224;-68
2023/04/03 02:36:50;;;;;;;3.55;3.25;;;-0.60;1.00;;;;;;5091501;28;20690;-68
2023/04/03 02:39:16;;;;;;;3.50;2.60;;;-0.60;1.00;;;;;;5093634;28;20178;-68
2023/04/03 02:41:43;;;;;;;2.58;2.38;;;-0.60;1.00;;;;;;5095228;28;20549;-70
2023/04/03 02:44:12;;;;;;;10.85;3.65;;;-0.60;1.00;;;;;;5096143;28;20170;-69
2023/04/03 02:46:38;;;;;;;4.32;2.97;;;-0.60;1.00;;;;;;5096267;28;20558;-70
2023/04/03 02:49:05;;;;;;;6.45;2.92;;;-0.60;1.00;;;;;;5095443;28;20292;-69
2023/04/03 02:51:34;;;;;;;3.65;3.33;;;-0.60;1.00;;;;;;5074697;28;20194;-68
2023/04/03 02:54:00;;;;;;;2.83;2.63;;;-0.60;1.00;;;;;;5075101;28;20515;-70
2023/04/03 02:56:26;;;;;;;4.10;3.03;;;-0.60;1.00;;;;;;5075763;28;20167;-70
2023/04/03 02:58:53;;;;;;;4.30;3.90;;;-0.60;1.00;;;;;;5075636;28;20217;-70
2023/04/03 03:01:23;;;;;;;3.65;3.35;;;-0.70;1.00;;;;;;5074661;28;20204;-68
2023/04/03 03:03:48;;;;;;;4.03;3.70;;;-0.70;1.00;;;;;;5075279;28;20181;-68
2023/04/03 03:06:17;;;;;;;6.70;3.90;;;-0.60;1.00;;;;;;5075197;28;20202;-68
2023/04/03 03:08:49;;;;;;;3.60;3.40;;;-0.60;1.00;;;;;;5092804;28;21003;-69
2023/04/03 03:11:15;;;;;;;3.90;2.88;;;-0.70;1.00;;;;;;5094233;28;20534;-70
2023/04/03 03:13:41;;;;;;;6.45;3.42;;;-0.70;1.00;;;;;;5095686;28;20174;-69
2023/04/03 03:16:16;;;;;;;4.03;3.15;;;-0.70;1.00;;;;;;5095491;28;20170;-69
2023/04/03 03:18:42;;;;;;;4.22;3.65;;;-0.70;1.00;;;;;;5083916;28;20181;-70
2023/04/03 03:21:10;;;;;;;7.00;3.70;;;-0.70;1.00;;;;;;5074506;28;20168;-68
2023/04/03 03:23:40;;;;;;;4.22;3.92;;;-0.70;1.00;;;;;;5075097;28;20470;-68
2023/04/03 03:26:11;;;;;;;9.10;3.97;;;-0.70;1.00;;;;;;5075174;28;20272;-69
2023/04/03 03:28:39;;;;;;;4.90;3.78;;;-0.70;1.00;;;;;;5074723;28;20166;-68
2023/04/03 03:31:05;;;;;;;3.90;3.47;;;-0.70;1.00;;;;;;5074193;28;20262;-68
2023/04/03 03:33:51;;;;;;;3.50;3.20;;;-0.70;1.00;;;;;;5085644;28;20204;-68
2023/04/03 03:36:17;;;;;;;3.35;3.15;;;-0.70;1.00;;;;;;5095115;28;20201;-69
2023/04/03 03:38:58;;;;;;;8.57;3.60;;;-0.70;1.00;;;;;;5095274;28;20196;-68
2023/04/03 03:41:25;;;;;;;20.17;3.65;;;-0.70;1.00;;;;;;5094110;28;20954;-69
2023/04/03 03:43:51;;;;;;;5.30;3.78;;;-0.70;1.00;;;;;;5077049;28;20185;-68
2023/04/03 03:46:16;;;;;;;3.73;2.87;;;-0.70;1.00;;;;;;5093311;28;20736;-69
2023/04/03 03:48:43;;;;;;;8.53;3.80;;;-0.80;1.00;;;;;;5094992;28;20421;-68
2023/04/03 03:51:46;;;;;;;3.90;3.58;;;-0.90;1.00;;;;;;5074878;28;20531;-70
2023/04/03 03:54:13;;;;;;;3.58;3.28;;;-0.90;1.00;;;;;;5094854;28;20243;-70
2023/04/03 03:56:39;;;;;;;5.47;3.28;;;-0.90;1.00;;;;;;5094823;28;20174;-68
2023/04/03 03:59:06;;;;;;;4.40;3.85;;;-0.90;1.00;;;;;;5094704;28;20499;-68
2023/04/03 04:01:32;;;;;;;4.30;3.60;;;-0.90;1.00;;;;;;5084221;28;20174;-68
2023/04/03 04:07:12;;;;;;;4.10;3.80;;;-1.00;1.00;;;;;;5052135;28;20531;-68
2023/04/03 04:09:38;;;;;;;3.70;3.13;;;-1.10;1.00;;;;;;5035604;28;20174;-70
2023/04/03 04:12:04;;;;;;;3.50;3.15;;;-1.10;1.00;;;;;;5061349;28;20440;-69
2023/04/03 04:14:30;;;;;;;3.70;3.50;;;-1.10;1.00;;;;;;5073843;28;20182;-69
2023/04/03 04:16:56;;;;;;;4.38;3.53;;;-1.10;1.00;;;;;;5074187;28;20178;-68
2023/04/03 04:19:25;;;;;;;4.20;3.77;;;-1.20;1.00;;;;;;5074100;28;20170;-69
2023/04/03 04:21:54;;;;;;;7.78;4.70;;;-1.20;1.00;;;;;;5072590;28;20208;-68
2023/04/03 04:24:20;;;;;;;6.50;3.53;;;-1.20;1.00;;;;;;5073427;28;20178;-68
2023/04/03 04:26:46;;;;;;;9.45;4.13;;;-1.20;1.00;;;;;;5055626;28;20209;-70
2023/04/03 04:33:37;;;;;;;12.15;3.53;;;-1.20;1.00;;;;;;4972605;28;20420;-72
2023/04/03 04:36:27;;;;;;;3.60;3.30;;;-1.20;1.00;;;;;;4964223;28;20189;-69
2023/04/03 04:38:53;;;;;;;5.20;4.40;;;-1.20;1.00;;;;;;4980437;28;20634;-69
2023/04/03 04:41:22;;;;;;;3.73;3.43;;;-1.30;1.00;;;;;;5009853;28;20182;-67
2023/04/03 04:43:52;;;;;;;4.45;4.05;;;-1.30;1.00;;;;;;5073741;28;20169;-67
2023/04/03 04:46:18;;;;;;;7.50;4.15;;;-1.30;1.00;;;;;;5073556;28;20212;-69
2023/04/03 04:48:44;;;;;;;3.92;3.60;;;-1.20;1.00;;;;;;5073403;28;20194;-69
2023/04/03 04:51:11;;;;;;;4.35;3.58;;;-1.20;1.00;;;;;;5072623;28;20186;-67
2023/04/03 04:53:37;;;;;;;3.42;3.10;;;-1.20;1.00;;;;;;5071564;28;20201;-68
2023/04/03 04:56:03;;;;;;;4.47;4.07;;;-1.30;1.00;;;;;;5073067;28;20170;-68
2023/04/03 04:58:29;;;;;;;4.28;3.97;;;-1.30;1.00;;;;;;5073308;28;20635;-67
2023/04/03 05:01:06;;;;;;;4.67;3.80;;;-1.30;1.00;;;;;;5071762;28;20186;-67
2023/04/03 05:03:32;;;;;;;9.18;6.60;;;-1.30;1.00;;;;;;5072940;28;20190;-70
2023/04/03 05:05:58;;;;;;;6.57;4.47;;;-1.20;1.00;;;;;;5074092;28;20227;-70
2023/04/03 05:08:24;;;;;;;8.77;6.00;;;-1.20;1.00;;;;;;5093329;28;20193;-69
2023/04/03 05:10:50;;;;;;;6.80;5.30;;;-1.10;1.00;;;;;;5092490;28;20622;-69
2023/04/03 05:13:15;;;;;;;5.70;4.20;;;-1.10;1.00;;;;;;5093334;28;20181;-69
2023/04/03 05:15:41;;;;;;;11.37;4.97;;;-1.10;1.00;;;;;;5092719;28;20399;-69
2023/04/03 05:18:07;;;;;;;5.97;5.07;;;-1.10;1.00;;;;;;5083518;28;20531;-66
2023/04/03 05:20:33;;;;;;;5.30;4.80;;;-1.20;1.00;;;;;;5086463;28;20652;-70
2023/04/03 05:22:59;;;;;;;13.05;4.40;;;-1.10;1.00;;;;;;5087155;28;20201;-69
2023/04/03 05:25:25;;;;;;;5.00;4.60;;;-1.10;1.00;;;;;;5075043;28;20205;-70
2023/04/03 05:27:51;;;;;;;4.90;4.50;;;-1.10;1.00;;;;;;5093294;28;20400;-70
2023/04/03 05:30:17;;;;;;;6.57;4.07;;;-1.10;1.00;;;;;;5074470;28;20166;-69
2023/04/03 05:32:43;;;;;;;4.45;4.03;;;-1.10;1.00;;;;;;5085572;28;20444;-69
2023/04/03 05:35:09;;;;;;;4.50;4.05;;;-1.10;1.00;;;;;;5083336;28;20181;-70
2023/04/03 05:37:36;;;;;;;4.18;3.88;;;-1.00;1.00;;;;;;5092099;28;20260;-69
2023/04/03 05:40:03;;;;;;;7.57;4.90;;;-1.00;1.00;;;;;;5092970;28;20169;-70
2023/04/03 05:42:29;;;;;;;4.97;4.20;;;-1.00;1.00;;;;;;5092661;28;20208;-70
2023/04/03 05:44:55;;;;;;;5.60;5.10;;;-1.00;1.00;;;;;;5093006;28;20226;-66
2023/04/03 05:47:21;;;;;;;7.23;4.70;;;-0.90;1.00;;;;;;5089580;28;20868;-67
2023/04/03 05:49:46;;;;;;;12.00;5.20;;;-0.90;1.70;;;;;;5072382;28;20515;-67
2023/04/03 05:52:29;;;;;;;10.17;4.60;;;-0.90;1.00;;;;;;5054008;28;20587;-66
2023/04/03 05:54:55;;;;;;;6.03;5.43;;;-0.90;3.50;;;;;;5072751;28;20187;-68
2023/04/03 05:57:21;;;;;;;4.72;4.43;;;-0.80;6.10;;;;;;5072615;28;20210;-70
2023/04/03 05:59:47;;;;;;;6.90;5.33;;;-0.80;9.00;;;;;;5072752;28;20197;-67
2023/04/03 06:02:19;;;;;;;7.43;5.40;;;-0.80;12.00;;;;;;5053525;28;20852;-67
2023/04/03 06:04:45;;;;;;;7.30;5.88;;;-0.70;14.60;;;;;;5072662;28;20162;-67
2023/04/03 06:07:22;;;;;;;6.40;5.20;;;-0.60;18.80;;;;;;5054751;28;20180;-67
2023/04/03 06:09:48;;;;;;;11.90;6.15;;;-0.60;22.70;;;;;;5071998;28;20424;-68
2023/04/03 06:12:14;;;;;;;8.30;5.75;;;-0.60;27.00;;;;;;5054092;28;20190;-66
2023/04/03 06:14:40;;;;;;;14.73;5.90;;;-0.50;32.00;;;;;;5074386;28;20241;-68
2023/04/03 06:17:06;;;;;;;4.88;4.47;;;-0.50;39.30;;;;;;5058035;28;20179;-66
2023/04/03 06:19:32;;;;;;;5.10;4.78;;;-0.40;44.00;;;;;;5076307;28;20253;-67
2023/04/03 06:21:58;;;;;;;7.07;5.33;;;-0.40;55.40;;;;;;5075529;28;20232;-68
2023/04/03 06:24:25;;;;;;;8.83;6.10;;;-0.30;60.10;;;;;;5076295;28;20500;-67
2023/04/03 06:26:52;;;;;;;6.75;6.25;;;-0.20;64.70;;;;;;5076256;28;20198;-68
2023/04/03 06:29:18;;;;;;;9.85;5.75;;;-0.20;71.00;;;;;;5075885;28;20519;-68
2023/04/03 06:31:44;;;;;;;6.93;5.97;;;-0.10;82.00;;;;;;5074698;28;20194;-68
2023/04/03 06:34:11;;;;;;;6.73;6.10;;;0.00;87.80;;;;;;5076162;28;20176;-67
2023/04/03 06:36:37;;;;;;;6.15;5.63;;;0.00;87.80;;;;;;5076175;28;20190;-68
2023/04/03 06:39:03;;;;;;;12.03;5.67;;;0.10;87.80;;;;;;5076035;28;20654;-67
2023/04/03 06:41:29;;;;;;;7.10;6.07;;;0.20;87.90;;;;;;5074983;28;20174;-67
2023/04/03 06:43:57;;;;;;;10.43;5.50;;;0.30;88.00;;;;;;5075423;28;20450;-67
2023/04/03 06:46:23;;;;;;;8.43;5.40;;;0.40;88.60;;;;;;5075190;28;20487;-68
2023/04/03 06:48:49;;;;;;;5.97;5.40;;;0.40;93.80;;;;;;5075841;28;20194;-68
2023/04/03 06:51:19;;;;;;;4.25;3.85;;;0.40;95.90;;;;;;5076383;28;20650;-67
2023/04/03 06:53:46;;;;;;;5.45;4.40;;;0.50;98.10;;;;;;5094927;28;20527;-67
2023/04/03 06:56:12;;;;;;;5.47;4.97;;;0.60;99.90;;;;;;5095977;28;20187;-67
2023/04/03 06:58:38;;;;;;;6.13;3.90;;;0.70;99.90;;;;;;5096125;28;20252;-69
2023/04/03 07:01:04;;;;;;;6.37;3.90;;;0.70;99.90;;;;;;5095016;28;20204;-67
2023/04/03 07:03:30;;;;;;;4.60;3.60;;;0.80;99.90;;;;;;5069611;28;20532;-67
2023/04/03 07:05:55;;;;;;;6.00;3.47;;;0.90;99.90;;;;;;5057668;28;20790;-69
2023/04/03 07:08:23;;;;;;;4.90;3.60;;;0.90;99.90;;;;;;5075422;28;20170;-69
2023/04/03 07:10:49;;;;;;;4.73;3.40;;;1.00;99.90;;;;;;5074507;28;20212;-69
2023/04/03 07:13:15;;;;;;;11.83;4.57;;;1.10;99.90;;;;;;5057318;28;20429;-67
2023/04/03 07:15:41;;;;;;;3.73;3.30;;;1.20;99.90;;;;;;5074814;28;20413;-68
2023/04/03 07:18:07;;;;;;;3.90;3.57;;;1.30;99.90;;;;;;5075138;28;20484;-68
2023/04/03 07:20:32;;;;;;;6.53;3.33;;;1.40;99.90;;;;;;5073248;28;20634;-67
2023/04/03 07:22:58;;;;;;;6.57;3.00;;;1.60;99.90;;;;;;5074460;28;20602;-69
2023/04/03 07:25:24;;;;;;;5.40;3.43;;;1.80;99.90;;;;;;5075038;28;20658;-68
2023/04/03 07:27:50;;;;;;;3.60;3.30;;;2.00;99.90;;;;;;5074006;28;20162;-68
2023/04/03 07:30:15;;;;;;;5.27;3.13;;;2.30;99.90;;;;;;5073434;28;20296;-69
2023/04/03 07:32:41;;;;;;;3.23;2.93;;;2.60;99.90;;;;;;5077516;28;20186;-67
2023/04/03 07:35:07;;;;;;;3.77;2.70;;;2.70;99.90;;;;;;5084505;28;20178;-69
2023/04/03 07:37:33;;;;;;;5.77;4.10;;;2.90;99.90;;;;;;5080512;28;20499;-68
2023/04/03 07:39:59;;;;;;;6.63;3.30;;;3.00;99.90;;;;;;5074215;28;20430;-67
2023/04/03 07:42:27;;;;;;;5.83;2.80;;;3.10;99.90;;;;;;5093637;28;20267;-68
2023/04/03 07:44:53;;;;;;;2.53;2.40;;;3.20;99.90;;;;;;5095007;28;20400;-67
2023/04/03 07:47:20;;;;;;;2.60;2.40;;;3.30;99.90;;;;;;5093337;28;20392;-69
2023/04/03 07:49:46;;;;;;;2.43;2.20;;;3.40;99.90;;;;;;5082137;28;20423;-66
2023/04/03 07:52:14;;;;;;;6.90;2.23;;;3.70;90.20;;;;;;5093935;28;20431;-67
2023/04/03 07:54:40;;;;;;;3.40;2.23;;;3.80;58.90;;;;;;5094905;28;20396;-67
2023/04/03 07:57:06;;;;;;;7.10;1.83;;;4.10;24.90;;;;;;5094874;28;20396;-66
2023/04/03 07:59:32;;;;;;;4.10;2.00;;;4.30;1.00;;;;;;5094847;28;20429;-67
2023/04/03 08:01:58;;;;;;;1.90;1.50;;;4.40;1.00;;;;;;5092076;28;20459;-67
2023/04/03 08:04:24;;;;;;;2.17;2.07;;;4.40;1.00;;;;;;5093647;28;20180;-67
2023/04/03 08:06:50;;;;;;;2.47;1.70;;;4.50;1.00;;;;;;5094252;28;20281;-66
2023/04/03 08:09:17;;;;;;;3.17;1.93;;;4.70;1.00;;;;;;5094615;28;20424;-68
2023/04/03 08:11:43;;;;;;;4.77;1.80;;;4.70;1.00;;;;;;5075430;28;20838;-69
2023/04/03 08:14:15;;;;;;;2.47;1.60;;;4.80;1.00;;;;;;5079743;28;20437;-69
2023/04/03 08:16:41;;;;;;;6.00;2.20;;;4.90;1.00;;;;;;5074200;28;20492;-69
2023/04/03 08:19:07;;;;;;;2.33;2.13;;;5.00;1.00;;;;;;5072533;28;20846;-70
2023/04/03 08:21:33;;;;;;;2.17;2.07;;;5.10;1.00;;;;;;5073147;28;20911;-70
2023/04/03 08:23:59;;;;;;;2.13;1.80;;;5.20;1.00;;;;;;5074127;28;20415;-73
2023/04/03 08:26:26;;;;;;;7.57;2.13;;;5.30;1.00;;;;;;5073355;28;20202;-70
2023/04/03 08:28:52;;;;;;;2.03;1.93;;;5.40;1.00;;;;;;5074024;28;20406;-69
2023/04/03 08:31:19;;;;;;;3.53;2.03;;;5.40;1.00;;;;;;5072972;28;20490;-70
2023/04/03 08:33:46;;;;;;;6.03;2.30;;;5.50;1.00;;;;;;5073878;28;20224;-71
2023/04/03 08:36:30;;;;;;;2.03;1.93;;;5.60;1.00;;;;;;5073807;28;20773;-71
2023/04/03 08:38:56;;;;;;;4.93;2.13;;;5.80;1.00;;;;;;5074944;28;20428;-71
2023/04/03 08:41:30;;;;;;;4.07;2.00;;;6.00;1.00;;;;;;5093083;28;20919;-70
2023/04/03 08:44:18;;;;;;;3.90;2.40;;;6.00;1.00;;;;;;5094009;28;20466;-70
2023/04/03 08:46:47;;;;;;;5.13;2.10;;;6.20;1.00;;;;;;5076357;28;20455;-69
2023/04/03 08:49:29;;;;;;;3.37;2.23;;;6.20;1.00;;;;;;5074472;28;20474;-69
2023/04/03 08:51:57;;;;;;;2.97;2.40;;;6.30;1.00;;;;;;5085538;28;20469;-71
2023/04/03 08:54:35;;;;;;;1.90;1.60;;;6.60;1.00;;;;;;5087462;28;20431;-69
2023/04/03 08:57:05;;;;;;;1.97;1.70;;;6.90;1.00;;;;;;5093016;28;20886;-67
2023/04/03 08:59:35;;;;;;;3.90;2.00;;;7.10;1.00;;;;;;5078052;28;20453;-70
2023/04/03 09:02:12;;;;;;;4.50;2.10;;;7.20;1.00;;;;;;5087377;28;20426;-71
2023/04/03 09:04:38;;;;;;;4.50;1.83;;;7.40;1.00;;;;;;5092025;28;20418;-72
2023/04/03 09:07:22;;;;;;;1.87;1.77;;;7.70;1.00;;;;;;5093573;28;20460;-72
2023/04/03 09:09:50;;;;;;;2.70;2.30;;;7.90;1.00;;;;;;5054483;28;20464;-72
2023/04/03 09:12:31;;;;;;;3.17;2.83;;;7.90;1.00;;;;;;5072370;28;20777;-70
2023/04/03 09:15:30;;;;;;;4.53;4.20;;;8.00;1.00;;;;;;5072174;28;20422;-71
2023/04/03 09:18:05;;;;;;;2.23;2.13;;;8.20;1.00;;;;;;5017879;28;20924;-75
2023/04/03 09:20:45;;;;;;;4.32;1.55;;;8.30;1.00;;;;;;5070516;28;20480;-76
2023/04/03 09:23:18;;;;;;;2.80;1.90;;;8.40;1.00;;;;;;5072897;28;20204;-71
2023/04/03 09:27:00;;;;;;;5.00;1.53;;;8.80;1.00;;;;;;5072626;28;20431;-73
2023/04/03 09:29:27;;;;;;;6.03;1.67;;;9.60;1.00;;;;;;5030957;28;20395;-71
2023/04/03 09:32:45;;;;;;;2.70;1.47;;;10.00;1.00;;;;;;5010815;28;20944;-70
2023/04/03 09:35:19;;;;;;;2.27;1.63;;;10.00;1.00;;;;;;5027847;28;20464;-71
2023/04/03 09:37:48;;;;;;;4.67;2.67;;;9.70;1.00;;;;;;5030718;28;20391;-71
2023/04/03 09:40:43;;;;;;;1.27;1.17;;;9.20;1.00;;;;;;5050341;28;20423;-71
2023/04/03 09:43:30;;;;;;;7.50;1.37;;;8.80;1.00;;;;;;5054952;28;20447;-73
2023/04/03 09:46:23;;;;;;;1.70;1.57;;;8.90;1.00;;;;;;5072183;28;20418;-73
2023/04/03 09:48:57;;;;;;;1.53;1.43;;;8.80;1.00;;;;;;5072354;28;20883;-71
2023/04/03 09:51:27;;;;;;;1.70;1.60;;;8.40;1.00;;;;;;5075351;28;20429;-72
2023/04/03 09:53:53;;;;;;;1.53;1.40;;;8.00;1.00;;;;;;5077045;28;20935;-69
2023/04/03 09:56:21;;;;;;;2.90;1.37;;;7.90;1.00;;;;;;5077018;28;20408;-70
2023/04/03 09:58:59;;;;;;;9.87;1.57;;;8.30;1.00;;;;;;5076932;28;20450;-70
2023/04/03 10:01:32;;;;;;;2.93;1.40;;;9.30;1.00;;;;;;5075771;28;20440;-70
2023/04/03 10:04:13;;;;;;;4.20;1.80;;;10.10;1.00;;;;;;5076159;28;20428;-70
2023/04/03 10:06:43;;;;;;;4.70;1.47;;;10.40;1.00;;;;;;5076732;28;20510;-71
2023/04/03 10:09:31;;;;;;;3.87;1.53;;;10.00;1.00;;;;;;5076046;28;20428;-73
2023/04/03 10:12:06;;;;;;;3.57;1.00;;;10.30;1.00;;;;;;5057955;28;20424;-71
2023/04/03 10:14:55;;;;;;;1.07;0.97;;;10.90;1.00;;;;;;5076474;28;20411;-71
2023/04/03 10:17:46;;;;;;;4.50;1.67;;;10.80;1.00;;;;;;5075860;28;20444;-73
2023/04/03 10:20:40;;;;;;;1.97;1.03;;;11.20;1.00;;;;;;5075509;28;20396;-72
2023/04/03 10:23:31;;;;;;;2.50;1.10;;;11.20;1.00;;;;;;5076295;28;20412;-72
2023/04/03 10:25:57;;;;;;;1.93;1.00;;;11.40;1.00;;;;;;5075696;28;20483;-73
2023/04/03 10:28:48;;;;;;;1.90;1.27;;;12.00;1.00;;;;;;5075866;28;20428;-73
2023/04/03 10:31:50;;;;;;;3.47;1.40;;;12.00;1.00;;;;;;5083865;28;20224;-73
2023/04/03 10:34:29;;;;;;;1.70;1.20;;;11.60;1.00;;;;;;5096386;28;20402;-72
2023/04/03 10:37:19;;;;;;;3.10;1.33;;;11.40;1.00;;;;;;5096453;28;20403;-72
2023/04/03 10:39:57;;;;;;;1.50;0.90;;;11.70;1.00;;;;;;5078015;28;20415;-73
2023/04/03 10:46:01;;;;;;;1.30;1.20;;;12.00;1.00;;;;;;5091971;28;20901;-72
2023/04/03 10:48:33;;;;;;;4.20;1.80;;;12.40;1.00;;;;;;5096200;28;20399;-72
2023/04/03 10:51:06;;;;;;;2.70;1.67;;;11.90;1.00;;;;;;5076917;28;20455;-72
2023/04/03 10:53:41;;;;;;;2.87;2.60;;;11.30;1.00;;;;;;5095995;28;20422;-72
2023/04/03 10:56:16;;;;;;;2.40;1.60;;;10.70;1.00;;;;;;5096285;28;20436;-71
2023/04/03 10:58:51;;;;;;;1.30;1.20;;;10.10;99.90;;;;;;5094645;28;20945;-73
2023/04/03 11:01:31;;;;;;;3.17;1.77;;;9.70;99.90;;;;;;5074163;28;20413;-71
2023/04/03 11:04:00;;;;;;;1.50;1.40;;;9.20;99.90;;;;;;5075250;28;20382;-72
2023/04/03 11:06:36;;;;;;;1.27;1.17;;;8.70;99.90;;;;;;5075265;28;20455;-71
2023/04/03 11:09:24;;;;;;;1.50;1.40;;;8.50;99.90;;;;;;5075506;28;20776;-72
2023/04/03 11:11:55;;;;;;;1.77;1.67;;;8.50;99.90;;;;;;5074379;28;20501;-73
2023/04/03 11:14:28;;;;;;;2.33;2.00;;;8.50;99.90;;;;;;5074876;28;20802;-71
2023/04/03 11:17:22;;;;;;;1.63;1.53;;;8.50;99.90;;;;;;5075402;28;20406;-73
2023/04/03 11:19:52;;;;;;;1.83;1.57;;;8.30;99.90;;;;;;5074569;28;20400;-72
2023/04/03 11:22:24;;;;;;;1.93;1.83;;;8.10;99.90;;;;;;5074533;28;20425;-72
2023/04/03 11:25:58;;;;;;;6.07;1.60;;;8.10;99.90;;;;;;5074660;28;20411;-71
2023/04/03 11:28:24;;;;;;;1.00;0.80;;;9.50;99.90;;;;;;5024732;28;20401;-72
2023/04/03 11:30:53;;;;;;;1.80;1.10;;;11.50;1.00;;;;;;5074325;28;20423;-73
2023/04/03 11:33:38;;;;;;;2.17;1.23;;;12.80;1.00;;;;;;5075070;28;20416;-72
2023/04/03 11:36:09;;;;;;;2.20;0.90;;;12.90;1.00;;;;;;5074949;28;20400;-73
2023/04/03 11:38:41;;;;;;;1.30;0.97;;;12.50;99.90;;;;;;5057246;28;20487;-73
2023/04/03 11:41:10;;;;;;;5.13;0.90;;;12.90;99.90;;;;;;5073479;28;20431;-72
2023/04/03 11:43:59;;;;;;;5.37;0.87;;;13.50;99.90;;;;;;5074594;28;20420;-73
2023/04/03 11:46:50;;;;;;;3.07;2.00;;;14.10;99.90;;;;;;5074661;28;20448;-73
2023/04/03 11:49:54;;;;;;;3.17;1.07;;;13.90;99.90;;;;;;5074765;28;20436;-73
2023/04/03 11:52:40;;;;;;;2.60;1.13;;;12.40;99.90;;;;;;5073975;28;20428;-73
2023/04/03 11:55:21;;;;;;;1.30;1.13;;;11.50;99.90;;;;;;5032934;28;20420;-73
2023/04/03 11:57:58;;;;;;;4.53;1.57;;;11.60;99.90;;;;;;5074439;28;20385;-73
2023/04/03 12:00:52;;;;;;;2.23;1.57;;;11.00;99.90;;;;;;5081840;28;20636;-70
2023/04/03 12:06:06;;;;;;;1.40;1.30;;;10.00;99.90;;;;;;5086356;28;20420;-70
2023/04/03 12:08:44;;;;;;;2.40;2.20;;;9.30;99.90;;;;;;5091636;28;20396;-73
2023/04/03 12:11:23;;;;;;;1.90;1.70;;;9.60;99.90;;;;;;5093299;28;20463;-73
2023/04/03 12:13:51;;;;;;;2.37;1.43;;;10.00;99.90;;;;;;5094212;28;20402;-73
2023/04/03 12:16:20;;;;;;;1.70;1.60;;;10.10;99.90;;;;;;5094374;28;20436;-73
2023/04/03 12:18:49;;;;;;;1.60;1.50;;;10.30;99.90;;;;;;5094534;28;20399;-71
2023/04/03 12:21:19;;;;;;;2.27;1.70;;;10.40;99.90;;;;;;5080683;28;20467;-71
2023/04/03 12:24:08;;;;;;;2.70;1.83;;;10.90;99.90;;;;;;5073381;28;20375;-73
2023/04/03 12:26:56;;;;;;;1.40;1.30;;;11.50;99.90;;;;;;5073874;28;20448;-73
2023/04/03 12:29:34;;;;;;;2.40;1.57;;;11.40;99.90;;;;;;5073405;28;20429;-73
2023/04/03 12:32:12;;;;;;;2.70;1.13;;;11.40;99.90;;;;;;5073011;28;20483;-73
2023/04/03 12:34:55;;;;;;;3.43;1.40;;;12.30;99.90;;;;;;5073903;28;20379;-73
2023/04/03 12:37:24;;;;;;;3.10;1.63;;;12.50;99.90;;;;;;5073998;28;20432;-73
2023/04/03 12:40:00;;;;;;;2.43;1.27;;;12.30;99.90;;;;;;5055865;28;20415;-73
2023/04/03 12:42:53;;;;;;;2.53;1.80;;;12.00;99.90;;;;;;5072265;28;20426;-71
2023/04/03 12:45:23;;;;;;;2.50;1.30;;;12.30;99.90;;;;;;5074188;28;20955;-71
2023/04/03 12:47:52;;;;;;;1.77;1.10;;;12.30;99.90;;;;;;5073560;28;20396;-71
2023/04/03 12:50:34;;;;;;;2.23;1.30;;;12.50;99.90;;;;;;5072547;28;20408;-71
2023/04/03 12:53:02;;;;;;;1.40;1.10;;;12.80;99.90;;;;;;5073345;28;20455;-70
2023/04/03 12:55:31;;;;;;;2.27;1.10;;;13.80;99.90;;;;;;5073683;28;20907;-73
2023/04/03 12:57:56;;;;;;;1.30;0.80;;;14.80;99.90;;;;;;5072632;28;20429;-73
2023/04/03 13:00:38;;;;;;;2.13;1.60;;;14.60;99.90;;;;;;5071804;28;20401;-72
2023/04/03 13:03:06;;;;;;;1.13;0.90;;;14.40;99.90;;;;;;5073293;28;20457;-72
2023/04/03 13:05:33;;;;;;;4.03;1.30;;;15.10;99.90;;;;;;5073313;28;20464;-72
2023/04/03 13:08:02;;;;;;;1.53;1.03;;;16.00;99.90;;;;;;5073354;28;20911;-73
2023/04/03 13:10:43;;;;;;;4.80;1.37;;;16.10;99.90;;;;;;5072353;28;20401;-71
2023/04/03 13:13:10;;;;;;;2.23;0.90;;;16.30;99.90;;;;;;5054398;28;20531;-70
2023/04/03 13:15:52;;;;;;;1.10;0.90;;;15.00;99.90;;;;;;5091421;28;20431;-73
2023/04/03 13:18:24;;;;;;;2.20;1.80;;;14.50;99.90;;;;;;5092721;28;20403;-72
2023/04/03 13:20:51;;;;;;;2.33;1.30;;;14.30;99.90;;;;;;5092433;28;20407;-71
2023/04/03 13:23:20;;;;;;;2.10;1.30;;;14.10;99.90;;;;;;5093098;28;20777;-73
2023/04/03 13:25:48;;;;;;;3.40;1.47;;;14.00;99.90;;;;;;5084756;28;20936;-73
2023/04/03 13:28:32;;;;;;;1.30;1.10;;;14.20;99.90;;;;;;5055076;28;20416;-72
2023/04/03 13:31:18;;;;;;;1.70;1.60;;;14.00;99.90;;;;;;5072046;28;20400;-71
2023/04/03 13:34:05;;;;;;;4.27;1.80;;;14.00;99.90;;;;;;5073013;28;20452;-73
2023/04/03 13:36:56;;;;;;;1.93;0.93;;;13.60;99.90;;;;;;5072338;28;20421;-70
2023/04/03 13:39:24;;;;;;;1.17;1.07;;;14.10;99.90;;;;;;5072617;28;20412;-71
2023/04/03 13:41:53;;;;;;;2.50;1.10;;;14.80;99.90;;;;;;5073380;28;20450;-73